sensor_id;sensor_type;location;lat;lon;timestamp;temperature;humidity
8611;DHT22;4343;53.648;10.098;2022-07-09T00:00:20;16.30;99.90
8611;DHT22;4343;53.648;10.098;2022-07-09T00:02:46;16.30;99.90
8611;DHT22;4343;53.648;10.098;2022-07-09T00:05:11;16.30;99.90
8611;DHT22;4343;53.648;10.098;2022-07-09T00:07:38;16.30;99.90
8611;DHT22;4343;53.648;10.098;2022-07-09T00:10:04;16.30;99.90
8611;DHT22;4343;53.648;10.098;2022-07-09T00:12:30;16.30;99.90
8611;DHT22;4343;53.648;10.098;2022-07-09T00:14:55;16.30;99.90
8611;DHT22;4343;53.648;10.098;2022-07-09T00:17:21;16.30;99.90
8611;DHT22;4343;53.648;10.098;2022-07-09T00:19:47;16.20;99.90
8611;DHT22;4343;53.648;10.098;2022-07-09T00:22:12;16.20;99.90
8611;DHT22;4343;53.648;10.098;2022-07-09T00:24:38;16.20;99.90
8611;DHT22;4343;53.648;10.098;2022-07-09T00:27:03;16.20;99.90
8611;DHT22;4343;53.648;10.098;2022-07-09T00:29:29;16.20;99.90
8611;DHT22;4343;53.648;10.098;2022-07-09T00:31:55;16.20;99.90
8611;DHT22;4343;53.648;10.098;2022-07-09T00:34:20;16.20;99.90
8611;DHT22;4343;53.648;10.098;2022-07-09T00:36:46;16.20;99.90
8611;DHT22;4343;53.648;10.098;2022-07-09T00:39:11;16.20;99.90
8611;DHT22;4343;53.648;10.098;2022-07-09T00:41:37;16.10;99.90
8611;DHT22;4343;53.648;10.098;2022-07-09T00:44:03;16.10;99.90
8611;DHT22;4343;53.648;10.098;2022-07-09T00:46:28;16.10;99.90
8611;DHT22;4343;53.648;10.098;2022-07-09T00:48:54;16.10;99.90
8611;DHT22;4343;53.648;10.098;2022-07-09T00:51:19;16.10;99.90
8611;DHT22;4343;53.648;10.098;2022-07-09T00:53:46;16.10;99.90
8611;DHT22;4343;53.648;10.098;2022-07-09T00:56:13;16.10;99.90
8611;DHT22;4343;53.648;10.098;2022-07-09T00:58:42;16.00;99.90
8611;DHT22;4343;53.648;10.098;2022-07-09T01:01:07;16.00;99.90
8611;DHT22;4343;53.648;10.098;2022-07-09T01:03:33;16.10;99.90
8611;DHT22;4343;53.648;10.098;2022-07-09T01:05:59;16.00;99.90
8611;DHT22;4343;53.648;10.098;2022-07-09T01:08:25;16.10;99.90
8611;DHT22;4343;53.648;10.098;2022-07-09T01:10:51;16.00;99.90
8611;DHT22;4343;53.648;10.098;2022-07-09T01:13:18;16.00;99.90
8611;DHT22;4343;53.648;10.098;2022-07-09T01:15:43;16.10;99.90
8611;DHT22;4343;53.648;10.098;2022-07-09T01:18:13;16.10;99.90
8611;DHT22;4343;53.648;10.098;2022-07-09T01:20:38;16.10;99.90
8611;DHT22;4343;53.648;10.098;2022-07-09T01:23:04;16.10;99.90
8611;DHT22;4343;53.648;10.098;2022-07-09T01:25:36;16.10;99.90
8611;DHT22;4343;53.648;10.098;2022-07-09T01:28:03;16.10;99.90
8611;DHT22;4343;53.648;10.098;2022-07-09T01:30:35;16.10;99.90
8611;DHT22;4343;53.648;10.098;2022-07-09T01:33:07;16.10;99.90
8611;DHT22;4343;53.648;10.098;2022-07-09T01:35:49;16.10;99.90
8611;DHT22;4343;53.648;10.098;2022-07-09T01:38:16;16.10;99.90
8611;DHT22;4343;53.648;10.098;2022-07-09T01:40:47;16.10;99.90
8611;DHT22;4343;53.648;10.098;2022-07-09T01:43:16;16.10;99.90
8611;DHT22;4343;53.648;10.098;2022-07-09T01:45:44;16.10;99.90
8611;DHT22;4343;53.648;10.098;2022-07-09T01:48:11;16.20;99.90
8611;DHT22;4343;53.648;10.098;2022-07-09T01:50:39;16.10;99.90
8611;DHT22;4343;53.648;10.098;2022-07-09T01:53:09;16.10;99.90
8611;DHT22;4343;53.648;10.098;2022-07-09T01:55:47;16.10;99.90
8611;DHT22;4343;53.648;10.098;2022-07-09T01:58:18;16.10;99.90
8611;DHT22;4343;53.648;10.098;2022-07-09T02:00:47;16.10;99.90
8611;DHT22;4343;53.648;10.098;2022-07-09T02:03:17;16.10;99.90
8611;DHT22;4343;53.648;10.098;2022-07-09T02:05:44;16.10;99.90
8611;DHT22;4343;53.648;10.098;2022-07-09T02:08:13;16.10;99.90
8611;DHT22;4343;53.648;10.098;2022-07-09T02:10:49;16.10;99.90
8611;DHT22;4343;53.648;10.098;2022-07-09T02:13:17;16.10;99.90
8611;DHT22;4343;53.648;10.098;2022-07-09T02:15:44;16.10;99.90
8611;DHT22;4343;53.648;10.098;2022-07-09T02:18:13;16.20;99.90
8611;DHT22;4343;53.648;10.098;2022-07-09T02:24:27;16.10;99.90
8611;DHT22;4343;53.648;10.098;2022-07-09T02:28:02;16.10;99.90
8611;DHT22;4343;53.648;10.098;2022-07-09T02:35:01;16.10;99.90
8611;DHT22;4343;53.648;10.098;2022-07-09T02:38:43;16.10;99.90
8611;DHT22;4343;53.648;10.098;2022-07-09T02:42:15;16.20;99.90
8611;DHT22;4343;53.648;10.098;2022-07-09T02:45:53;16.10;99.90
8611;DHT22;4343;53.648;10.098;2022-07-09T09:39:34;20.80;99.90
8611;DHT22;4343;53.648;10.098;2022-07-09T09:53:35;20.50;99.90
8611;DHT22;4343;53.648;10.098;2022-07-09T10:07:50;20.70;99.90
8611;DHT22;4343;53.648;10.098;2022-07-09T10:18:10;21.50;99.90
8611;DHT22;4343;53.648;10.098;2022-07-09T10:21:04;21.50;99.90
8611;DHT22;4343;53.648;10.098;2022-07-09T10:24:05;21.50;99.90
8611;DHT22;4343;53.648;10.098;2022-07-09T10:27:15;21.50;99.90
8611;DHT22;4343;53.648;10.098;2022-07-09T10:30:05;21.60;99.90
8611;DHT22;4343;53.648;10.098;2022-07-09T10:32:46;21.80;99.90
8611;DHT22;4343;53.648;10.098;2022-07-09T10:35:51;21.90;99.90
8611;DHT22;4343;53.648;10.098;2022-07-09T10:38:18;22.00;99.90
8611;DHT22;4343;53.648;10.098;2022-07-09T10:40:59;22.10;99.90
8611;DHT22;4343;53.648;10.098;2022-07-09T10:43:50;22.30;99.90
8611;DHT22;4343;53.648;10.098;2022-07-09T10:46:30;22.40;99.90
8611;DHT22;4343;53.648;10.098;2022-07-09T10:49:39;22.60;99.90
8611;DHT22;4343;53.648;10.098;2022-07-09T10:52:58;22.80;99.90
8611;DHT22;4343;53.648;10.098;2022-07-09T10:56:37;23.00;99.90
8611;DHT22;4343;53.648;10.098;2022-07-09T10:59:47;23.10;99.90
8611;DHT22;4343;53.648;10.098;2022-07-09T11:02:37;23.20;99.90
8611;DHT22;4343;53.648;10.098;2022-07-09T11:05:11;23.40;99.90
8611;DHT22;4343;53.648;10.098;2022-07-09T11:08:03;23.60;99.90
8611;DHT22;4343;53.648;10.098;2022-07-09T11:10:43;23.80;99.90
8611;DHT22;4343;53.648;10.098;2022-07-09T11:13:13;24.00;99.90
8611;DHT22;4343;53.648;10.098;2022-07-09T11:15:40;24.20;99.90
8611;DHT22;4343;53.648;10.098;2022-07-09T11:18:09;24.20;99.90
8611;DHT22;4343;53.648;10.098;2022-07-09T11:21:03;24.00;99.90
8611;DHT22;4343;53.648;10.098;2022-07-09T11:24:28;23.80;99.90
8611;DHT22;4343;53.648;10.098;2022-07-09T11:28:00;23.50;99.90
8611;DHT22;4343;53.648;10.098;2022-07-09T11:31:26;23.30;99.90
8611;DHT22;4343;53.648;10.098;2022-07-09T11:34:31;23.20;99.90
8611;DHT22;4343;53.648;10.098;2022-07-09T11:36:59;23.30;99.90
8611;DHT22;4343;53.648;10.098;2022-07-09T11:39:29;23.50;99.90
8611;DHT22;4343;53.648;10.098;2022-07-09T11:42:17;23.60;99.90
8611;DHT22;4343;53.648;10.098;2022-07-09T11:52:35;24.00;99.90
8611;DHT22;4343;53.648;10.098;2022-07-09T11:55:09;24.30;99.90
8611;DHT22;4343;53.648;10.098;2022-07-09T11:57:37;24.40;99.90
8611;DHT22;4343;53.648;10.098;2022-07-09T12:00:29;24.50;99.90
8611;DHT22;4343;53.648;10.098;2022-07-09T12:02:57;24.50;99.90
8611;DHT22;4343;53.648;10.098;2022-07-09T12:05:33;24.50;99.90
8611;DHT22;4343;53.648;10.098;2022-07-09T12:08:26;24.50;99.90
8611;DHT22;4343;53.648;10.098;2022-07-09T12:11:26;24.60;99.90
8611;DHT22;4343;53.648;10.098;2022-07-09T12:13:59;24.60;99.90
8611;DHT22;4343;53.648;10.098;2022-07-09T12:16:33;24.60;99.90
8611;DHT22;4343;53.648;10.098;2022-07-09T12:19:23;24.70;99.90
8611;DHT22;4343;53.648;10.098;2022-07-09T12:22:03;24.80;99.90
8611;DHT22;4343;53.648;10.098;2022-07-09T12:24:33;25.00;99.90
8611;DHT22;4343;53.648;10.098;2022-07-09T12:27:06;25.00;99.90
8611;DHT22;4343;53.648;10.098;2022-07-09T12:29:47;24.90;99.90
8611;DHT22;4343;53.648;10.098;2022-07-09T12:32:16;24.80;99.90
8611;DHT22;4343;53.648;10.098;2022-07-09T12:34:42;24.80;99.90
8611;DHT22;4343;53.648;10.098;2022-07-09T12:37:08;24.90;99.90
8611;DHT22;4343;53.648;10.098;2022-07-09T12:39:36;24.80;99.90
8611;DHT22;4343;53.648;10.098;2022-07-09T12:42:14;24.70;99.90
8611;DHT22;4343;53.648;10.098;2022-07-09T12:44:39;24.70;99.90
8611;DHT22;4343;53.648;10.098;2022-07-09T12:47:05;24.70;99.90
8611;DHT22;4343;53.648;10.098;2022-07-09T12:49:30;24.60;99.90
8611;DHT22;4343;53.648;10.098;2022-07-09T12:51:56;24.60;99.90
8611;DHT22;4343;53.648;10.098;2022-07-09T12:54:21;24.70;99.90
8611;DHT22;4343;53.648;10.098;2022-07-09T12:56:47;24.80;99.90
8611;DHT22;4343;53.648;10.098;2022-07-09T12:59:16;24.80;99.90
8611;DHT22;4343;53.648;10.098;2022-07-09T13:01:43;24.80;99.90
8611;DHT22;4343;53.648;10.098;2022-07-09T13:04:08;24.70;99.90
8611;DHT22;4343;53.648;10.098;2022-07-09T13:06:34;24.80;99.90
8611;DHT22;4343;53.648;10.098;2022-07-09T13:09:02;24.70;99.90
8611;DHT22;4343;53.648;10.098;2022-07-09T13:11:28;24.80;99.90
8611;DHT22;4343;53.648;10.098;2022-07-09T13:13:54;24.90;99.90
8611;DHT22;4343;53.648;10.098;2022-07-09T13:16:19;25.00;99.90
8611;DHT22;4343;53.648;10.098;2022-07-09T13:18:45;25.10;99.90
8611;DHT22;4343;53.648;10.098;2022-07-09T13:21:11;25.30;99.90
8611;DHT22;4343;53.648;10.098;2022-07-09T13:23:37;25.40;99.90
8611;DHT22;4343;53.648;10.098;2022-07-09T13:26:03;25.60;99.20
8611;DHT22;4343;53.648;10.098;2022-07-09T13:28:29;25.60;98.90
8611;DHT22;4343;53.648;10.098;2022-07-09T13:30:54;25.50;98.40
8611;DHT22;4343;53.648;10.098;2022-07-09T13:33:20;25.40;98.20
8611;DHT22;4343;53.648;10.098;2022-07-09T13:35:45;25.30;98.50
8611;DHT22;4343;53.648;10.098;2022-07-09T13:38:11;25.10;98.70
8611;DHT22;4343;53.648;10.098;2022-07-09T13:40:37;25.00;98.70
8611;DHT22;4343;53.648;10.098;2022-07-09T13:43:02;24.80;98.50
8611;DHT22;4343;53.648;10.098;2022-07-09T13:45:28;24.70;98.50
8611;DHT22;4343;53.648;10.098;2022-07-09T13:47:54;24.60;98.80
8611;DHT22;4343;53.648;10.098;2022-07-09T13:50:20;24.50;98.70
8611;DHT22;4343;53.648;10.098;2022-07-09T13:52:49;24.40;98.90
8611;DHT22;4343;53.648;10.098;2022-07-09T13:55:14;24.40;98.70
8611;DHT22;4343;53.648;10.098;2022-07-09T13:57:40;24.30;98.40
8611;DHT22;4343;53.648;10.098;2022-07-09T14:00:07;24.30;98.20
8611;DHT22;4343;53.648;10.098;2022-07-09T14:02:33;24.20;98.50
8611;DHT22;4343;53.648;10.098;2022-07-09T14:04:59;24.20;98.80
8611;DHT22;4343;53.648;10.098;2022-07-09T14:07:26;24.20;98.90
8611;DHT22;4343;53.648;10.098;2022-07-09T14:09:52;24.20;98.90
8611;DHT22;4343;53.648;10.098;2022-07-09T14:12:18;24.30;98.60
8611;DHT22;4343;53.648;10.098;2022-07-09T14:14:43;24.40;98.30
8611;DHT22;4343;53.648;10.098;2022-07-09T14:17:09;24.50;98.20
8611;DHT22;4343;53.648;10.098;2022-07-09T14:19:35;24.50;98.30
8611;DHT22;4343;53.648;10.098;2022-07-09T14:22:00;24.50;98.40
8611;DHT22;4343;53.648;10.098;2022-07-09T14:24:26;24.50;98.40
8611;DHT22;4343;53.648;10.098;2022-07-09T14:26:52;24.40;98.40
8611;DHT22;4343;53.648;10.098;2022-07-09T14:29:17;24.30;98.30
8611;DHT22;4343;53.648;10.098;2022-07-09T14:31:43;24.20;98.30
8611;DHT22;4343;53.648;10.098;2022-07-09T14:34:09;24.10;98.00
8611;DHT22;4343;53.648;10.098;2022-07-09T14:36:34;24.00;98.00
8611;DHT22;4343;53.648;10.098;2022-07-09T14:39:00;23.90;98.10
8611;DHT22;4343;53.648;10.098;2022-07-09T14:41:28;23.80;98.30
8611;DHT22;4343;53.648;10.098;2022-07-09T14:43:53;23.60;98.40
8611;DHT22;4343;53.648;10.098;2022-07-09T14:46:19;23.50;98.90
8611;DHT22;4343;53.648;10.098;2022-07-09T14:48:45;23.40;99.30
8611;DHT22;4343;53.648;10.098;2022-07-09T14:51:10;23.20;99.00
8611;DHT22;4343;53.648;10.098;2022-07-09T14:53:36;23.10;98.50
8611;DHT22;4343;53.648;10.098;2022-07-09T14:56:02;22.90;98.50
8611;DHT22;4343;53.648;10.098;2022-07-09T14:58:27;22.70;98.70
8611;DHT22;4343;53.648;10.098;2022-07-09T15:00:53;22.50;98.70
8611;DHT22;4343;53.648;10.098;2022-07-09T15:03:19;22.40;98.70
8611;DHT22;4343;53.648;10.098;2022-07-09T15:05:44;22.30;99.00
8611;DHT22;4343;53.648;10.098;2022-07-09T15:08:13;22.10;99.20
8611;DHT22;4343;53.648;10.098;2022-07-09T15:10:38;22.00;99.50
8611;DHT22;4343;53.648;10.098;2022-07-09T15:13:05;21.90;99.90
8611;DHT22;4343;53.648;10.098;2022-07-09T15:15:32;21.80;99.90
8611;DHT22;4343;53.648;10.098;2022-07-09T15:17:58;21.70;99.80
8611;DHT22;4343;53.648;10.098;2022-07-09T15:20:24;21.70;99.90
8611;DHT22;4343;53.648;10.098;2022-07-09T15:22:49;21.60;99.90
8611;DHT22;4343;53.648;10.098;2022-07-09T15:25:15;21.50;99.70
8611;DHT22;4343;53.648;10.098;2022-07-09T15:27:41;21.40;99.20
8611;DHT22;4343;53.648;10.098;2022-07-09T15:30:07;21.40;98.60
8611;DHT22;4343;53.648;10.098;2022-07-09T15:32:32;21.40;98.90
8611;DHT22;4343;53.648;10.098;2022-07-09T15:34:58;21.30;99.10
8611;DHT22;4343;53.648;10.098;2022-07-09T15:37:24;21.30;99.20
8611;DHT22;4343;53.648;10.098;2022-07-09T15:39:49;21.20;98.90
8611;DHT22;4343;53.648;10.098;2022-07-09T15:42:15;21.20;99.10
8611;DHT22;4343;53.648;10.098;2022-07-09T15:44:41;21.10;99.00
8611;DHT22;4343;53.648;10.098;2022-07-09T15:47:06;21.00;98.50
8611;DHT22;4343;53.648;10.098;2022-07-09T15:49:32;21.00;98.70
8611;DHT22;4343;53.648;10.098;2022-07-09T15:51:58;20.90;98.70
8611;DHT22;4343;53.648;10.098;2022-07-09T15:54:23;20.80;98.90
8611;DHT22;4343;53.648;10.098;2022-07-09T15:56:49;20.80;99.10
8611;DHT22;4343;53.648;10.098;2022-07-09T15:59:18;20.70;99.40
8611;DHT22;4343;53.648;10.098;2022-07-09T16:01:43;20.60;99.90
8611;DHT22;4343;53.648;10.098;2022-07-09T16:04:09;20.60;99.90
8611;DHT22;4343;53.648;10.098;2022-07-09T16:06:35;20.60;99.90
8611;DHT22;4343;53.648;10.098;2022-07-09T16:09:01;20.50;99.90
8611;DHT22;4343;53.648;10.098;2022-07-09T16:11:27;20.50;99.90
8611;DHT22;4343;53.648;10.098;2022-07-09T16:14:11;20.50;99.90
8611;DHT22;4343;53.648;10.098;2022-07-09T16:16:38;20.40;99.90
8611;DHT22;4343;53.648;10.098;2022-07-09T16:19:03;20.40;99.90
8611;DHT22;4343;53.648;10.098;2022-07-09T16:21:29;20.40;99.90
8611;DHT22;4343;53.648;10.098;2022-07-09T16:23:55;20.30;99.90
8611;DHT22;4343;53.648;10.098;2022-07-09T16:26:20;20.30;99.90
8611;DHT22;4343;53.648;10.098;2022-07-09T16:28:46;20.30;99.90
8611;DHT22;4343;53.648;10.098;2022-07-09T16:31:11;20.30;99.90
8611;DHT22;4343;53.648;10.098;2022-07-09T16:33:37;20.10;99.90
8611;DHT22;4343;53.648;10.098;2022-07-09T16:36:02;20.10;99.90
8611;DHT22;4343;53.648;10.098;2022-07-09T16:38:28;20.00;99.90
8611;DHT22;4343;53.648;10.098;2022-07-09T16:40:53;20.00;99.90
8611;DHT22;4343;53.648;10.098;2022-07-09T16:43:19;19.90;99.90
8611;DHT22;4343;53.648;10.098;2022-07-09T16:45:44;19.90;99.90
8611;DHT22;4343;53.648;10.098;2022-07-09T16:48:10;19.80;99.90
8611;DHT22;4343;53.648;10.098;2022-07-09T16:50:36;19.70;99.90
8611;DHT22;4343;53.648;10.098;2022-07-09T16:53:01;19.70;99.90
8611;DHT22;4343;53.648;10.098;2022-07-09T16:55:27;19.70;99.90
8611;DHT22;4343;53.648;10.098;2022-07-09T16:57:53;19.50;99.90
8611;DHT22;4343;53.648;10.098;2022-07-09T17:00:18;19.50;99.90
8611;DHT22;4343;53.648;10.098;2022-07-09T17:02:44;19.40;99.90
8611;DHT22;4343;53.648;10.098;2022-07-09T17:05:11;19.40;99.90
8611;DHT22;4343;53.648;10.098;2022-07-09T17:07:38;19.30;99.90
8611;DHT22;4343;53.648;10.098;2022-07-09T17:10:06;19.30;99.90
8611;DHT22;4343;53.648;10.098;2022-07-09T17:12:31;19.40;99.90
8611;DHT22;4343;53.648;10.098;2022-07-09T17:14:58;19.30;99.90
8611;DHT22;4343;53.648;10.098;2022-07-09T17:17:25;19.30;99.90
8611;DHT22;4343;53.648;10.098;2022-07-09T17:19:51;19.20;99.90
8611;DHT22;4343;53.648;10.098;2022-07-09T17:22:16;19.20;99.90
8611;DHT22;4343;53.648;10.098;2022-07-09T17:24:42;19.10;99.90
8611;DHT22;4343;53.648;10.098;2022-07-09T17:27:08;19.10;99.90
8611;DHT22;4343;53.648;10.098;2022-07-09T17:29:33;19.00;99.90
8611;DHT22;4343;53.648;10.098;2022-07-09T17:31:59;18.90;99.90
8611;DHT22;4343;53.648;10.098;2022-07-09T17:34:24;18.90;99.90
8611;DHT22;4343;53.648;10.098;2022-07-09T17:36:50;18.80;99.90
8611;DHT22;4343;53.648;10.098;2022-07-09T17:39:15;18.70;99.90
8611;DHT22;4343;53.648;10.098;2022-07-09T17:41:41;18.70;99.90
8611;DHT22;4343;53.648;10.098;2022-07-09T17:44:07;18.60;99.90
8611;DHT22;4343;53.648;10.098;2022-07-09T17:46:32;18.50;99.90
8611;DHT22;4343;53.648;10.098;2022-07-09T17:48:58;18.50;99.90
8611;DHT22;4343;53.648;10.098;2022-07-09T17:51:23;18.40;99.90
8611;DHT22;4343;53.648;10.098;2022-07-09T17:53:49;18.30;99.90
8611;DHT22;4343;53.648;10.098;2022-07-09T17:56:16;18.30;99.90
8611;DHT22;4343;53.648;10.098;2022-07-09T17:58:42;18.20;99.90
8611;DHT22;4343;53.648;10.098;2022-07-09T18:01:07;18.20;99.90
8611;DHT22;4343;53.648;10.098;2022-07-09T18:03:34;18.20;99.90
8611;DHT22;4343;53.648;10.098;2022-07-09T18:06:00;18.20;99.90
8611;DHT22;4343;53.648;10.098;2022-07-09T18:08:26;18.20;99.90
8611;DHT22;4343;53.648;10.098;2022-07-09T18:10:51;18.20;99.90
8611;DHT22;4343;53.648;10.098;2022-07-09T18:13:19;18.20;99.90
8611;DHT22;4343;53.648;10.098;2022-07-09T18:15:44;18.10;99.90
8611;DHT22;4343;53.648;10.098;2022-07-09T18:18:10;18.10;99.90
8611;DHT22;4343;53.648;10.098;2022-07-09T18:20:35;18.10;99.90
8611;DHT22;4343;53.648;10.098;2022-07-09T18:23:01;18.10;99.90
8611;DHT22;4343;53.648;10.098;2022-07-09T18:25:27;18.00;99.90
8611;DHT22;4343;53.648;10.098;2022-07-09T18:27:52;18.00;99.90
8611;DHT22;4343;53.648;10.098;2022-07-09T18:30:18;18.00;99.90
8611;DHT22;4343;53.648;10.098;2022-07-09T18:32:43;17.90;99.90
8611;DHT22;4343;53.648;10.098;2022-07-09T18:35:10;18.00;99.90
8611;DHT22;4343;53.648;10.098;2022-07-09T18:37:35;17.90;99.90
8611;DHT22;4343;53.648;10.098;2022-07-09T18:40:01;17.80;99.90
8611;DHT22;4343;53.648;10.098;2022-07-09T18:42:26;17.80;99.90
8611;DHT22;4343;53.648;10.098;2022-07-09T18:44:52;17.80;99.90
8611;DHT22;4343;53.648;10.098;2022-07-09T18:47:19;17.70;99.90
8611;DHT22;4343;53.648;10.098;2022-07-09T18:49:48;17.70;99.90
8611;DHT22;4343;53.648;10.098;2022-07-09T18:52:13;17.70;99.90
8611;DHT22;4343;53.648;10.098;2022-07-09T18:54:39;17.60;99.90
8611;DHT22;4343;53.648;10.098;2022-07-09T18:57:04;17.60;99.90
8611;DHT22;4343;53.648;10.098;2022-07-09T18:59:30;17.60;99.90
8611;DHT22;4343;53.648;10.098;2022-07-09T19:01:56;17.50;99.90
8611;DHT22;4343;53.648;10.098;2022-07-09T19:04:21;17.50;99.90
8611;DHT22;4343;53.648;10.098;2022-07-09T19:06:47;17.50;99.90
8611;DHT22;4343;53.648;10.098;2022-07-09T19:09:12;17.40;99.90
8611;DHT22;4343;53.648;10.098;2022-07-09T19:11:40;17.40;99.90
8611;DHT22;4343;53.648;10.098;2022-07-09T19:14:05;17.30;99.90
8611;DHT22;4343;53.648;10.098;2022-07-09T19:16:31;17.30;99.90
8611;DHT22;4343;53.648;10.098;2022-07-09T19:18:57;17.30;99.90
8611;DHT22;4343;53.648;10.098;2022-07-09T19:21:22;17.20;99.90
8611;DHT22;4343;53.648;10.098;2022-07-09T19:23:48;17.20;99.90
8611;DHT22;4343;53.648;10.098;2022-07-09T19:26:13;17.10;99.90
8611;DHT22;4343;53.648;10.098;2022-07-09T19:28:39;17.10;99.90
8611;DHT22;4343;53.648;10.098;2022-07-09T19:31:08;17.00;99.90
8611;DHT22;4343;53.648;10.098;2022-07-09T19:33:52;17.00;99.90
8611;DHT22;4343;53.648;10.098;2022-07-09T19:36:32;17.00;99.90
8611;DHT22;4343;53.648;10.098;2022-07-09T19:38:58;17.00;99.90
8611;DHT22;4343;53.648;10.098;2022-07-09T19:41:24;17.00;99.90
8611;DHT22;4343;53.648;10.098;2022-07-09T19:43:51;17.00;99.90
8611;DHT22;4343;53.648;10.098;2022-07-09T19:46:18;17.00;99.90
8611;DHT22;4343;53.648;10.098;2022-07-09T19:48:44;17.00;99.90
8611;DHT22;4343;53.648;10.098;2022-07-09T19:51:09;17.00;99.90
8611;DHT22;4343;53.648;10.098;2022-07-09T19:53:35;17.00;99.90
8611;DHT22;4343;53.648;10.098;2022-07-09T19:56:01;16.90;99.90
8611;DHT22;4343;53.648;10.098;2022-07-09T19:58:27;17.00;99.90
8611;DHT22;4343;53.648;10.098;2022-07-09T20:00:52;16.90;99.90
8611;DHT22;4343;53.648;10.098;2022-07-09T20:03:18;16.90;99.90
8611;DHT22;4343;53.648;10.098;2022-07-09T20:05:44;16.90;99.90
8611;DHT22;4343;53.648;10.098;2022-07-09T20:08:09;16.90;99.90
8611;DHT22;4343;53.648;10.098;2022-07-09T20:10:35;16.80;99.90
8611;DHT22;4343;53.648;10.098;2022-07-09T20:13:01;16.70;99.90
8611;DHT22;4343;53.648;10.098;2022-07-09T20:15:26;16.70;99.90
8611;DHT22;4343;53.648;10.098;2022-07-09T20:17:53;16.60;99.90
8611;DHT22;4343;53.648;10.098;2022-07-09T20:20:18;16.60;99.90
8611;DHT22;4343;53.648;10.098;2022-07-09T20:22:44;16.50;99.90
8611;DHT22;4343;53.648;10.098;2022-07-09T20:25:09;16.50;99.90
8611;DHT22;4343;53.648;10.098;2022-07-09T20:27:35;16.40;99.90
8611;DHT22;4343;53.648;10.098;2022-07-09T20:30:00;16.30;99.90
8611;DHT22;4343;53.648;10.098;2022-07-09T20:32:26;16.30;99.90
8611;DHT22;4343;53.648;10.098;2022-07-09T20:34:51;16.30;99.90
8611;DHT22;4343;53.648;10.098;2022-07-09T20:37:17;16.20;99.90
8611;DHT22;4343;53.648;10.098;2022-07-09T20:39:42;16.20;99.90
8611;DHT22;4343;53.648;10.098;2022-07-09T20:42:08;16.20;99.90
8611;DHT22;4343;53.648;10.098;2022-07-09T20:44:33;16.20;99.90
8611;DHT22;4343;53.648;10.098;2022-07-09T20:46:59;16.20;99.90
8611;DHT22;4343;53.648;10.098;2022-07-09T20:49:24;16.20;99.90
8611;DHT22;4343;53.648;10.098;2022-07-09T20:51:51;16.20;99.90
8611;DHT22;4343;53.648;10.098;2022-07-09T20:54:16;16.20;99.90
8611;DHT22;4343;53.648;10.098;2022-07-09T20:56:42;16.20;99.90
8611;DHT22;4343;53.648;10.098;2022-07-09T20:59:08;16.20;99.90
8611;DHT22;4343;53.648;10.098;2022-07-09T21:01:33;16.20;99.90
8611;DHT22;4343;53.648;10.098;2022-07-09T21:03:59;16.20;99.90
8611;DHT22;4343;53.648;10.098;2022-07-09T21:06:25;16.20;99.90
8611;DHT22;4343;53.648;10.098;2022-07-09T21:08:50;16.10;99.90
8611;DHT22;4343;53.648;10.098;2022-07-09T21:11:16;16.10;99.90
8611;DHT22;4343;53.648;10.098;2022-07-09T21:13:42;16.10;99.90
8611;DHT22;4343;53.648;10.098;2022-07-09T21:16:08;16.10;99.90
8611;DHT22;4343;53.648;10.098;2022-07-09T21:18:34;16.00;99.90
8611;DHT22;4343;53.648;10.098;2022-07-09T21:21:17;16.00;99.90
8611;DHT22;4343;53.648;10.098;2022-07-09T21:23:53;15.90;99.90
8611;DHT22;4343;53.648;10.098;2022-07-09T21:26:25;15.90;99.90
8611;DHT22;4343;53.648;10.098;2022-07-09T21:28:51;15.80;99.90
8611;DHT22;4343;53.648;10.098;2022-07-09T21:31:21;15.70;99.90
8611;DHT22;4343;53.648;10.098;2022-07-09T21:33:49;15.80;99.90
8611;DHT22;4343;53.648;10.098;2022-07-09T21:36:15;15.80;99.90
8611;DHT22;4343;53.648;10.098;2022-07-09T21:38:41;15.80;99.90
8611;DHT22;4343;53.648;10.098;2022-07-09T21:41:10;15.80;99.90
8611;DHT22;4343;53.648;10.098;2022-07-09T21:43:36;15.80;99.90
8611;DHT22;4343;53.648;10.098;2022-07-09T21:46:02;15.70;99.90
8611;DHT22;4343;53.648;10.098;2022-07-09T21:48:28;15.80;99.90
8611;DHT22;4343;53.648;10.098;2022-07-09T21:51:00;15.80;99.90
8611;DHT22;4343;53.648;10.098;2022-07-09T21:53:43;15.80;99.90
8611;DHT22;4343;53.648;10.098;2022-07-09T21:56:09;15.80;99.90
8611;DHT22;4343;53.648;10.098;2022-07-09T21:58:36;15.80;99.90
8611;DHT22;4343;53.648;10.098;2022-07-09T22:01:04;15.80;99.90
8611;DHT22;4343;53.648;10.098;2022-07-09T22:03:30;15.70;99.90
8611;DHT22;4343;53.648;10.098;2022-07-09T22:05:58;15.70;99.90
8611;DHT22;4343;53.648;10.098;2022-07-09T22:08:27;15.70;99.90
8611;DHT22;4343;53.648;10.098;2022-07-09T22:11:32;15.70;99.90
8611;DHT22;4343;53.648;10.098;2022-07-09T22:14:25;15.60;99.90
8611;DHT22;4343;53.648;10.098;2022-07-09T22:17:19;15.60;99.90
8611;DHT22;4343;53.648;10.098;2022-07-09T22:20:07;15.60;99.90
8611;DHT22;4343;53.648;10.098;2022-07-09T22:23:36;15.60;99.90
8611;DHT22;4343;53.648;10.098;2022-07-09T22:26:48;15.50;99.90
8611;DHT22;4343;53.648;10.098;2022-07-09T22:30:31;15.50;99.90
8611;DHT22;4343;53.648;10.098;2022-07-09T22:33:46;15.50;99.90
8611;DHT22;4343;53.648;10.098;2022-07-09T22:40:36;15.50;99.90
8611;DHT22;4343;53.648;10.098;2022-07-09T22:43:43;15.50;99.90
8611;DHT22;4343;53.648;10.098;2022-07-09T22:47:19;15.50;99.90
8611;DHT22;4343;53.648;10.098;2022-07-09T22:50:15;15.40;99.90
8611;DHT22;4343;53.648;10.098;2022-07-09T22:57:05;15.40;99.90
8611;DHT22;4343;53.648;10.098;2022-07-09T23:11:06;15.30;99.90
8611;DHT22;4343;53.648;10.098;2022-07-09T23:14:32;15.30;99.90
8611;DHT22;4343;53.648;10.098;2022-07-09T23:17:54;15.30;99.90
8611;DHT22;4343;53.648;10.098;2022-07-09T23:24:51;15.20;99.90
8611;DHT22;4343;53.648;10.098;2022-07-09T23:28:33;15.20;99.90
8611;DHT22;4343;53.648;10.098;2022-07-09T23:32:19;15.20;99.90
8611;DHT22;4343;53.648;10.098;2022-07-09T23:35:27;15.20;99.90
8611;DHT22;4343;53.648;10.098;2022-07-09T23:39:21;15.20;99.90
8611;DHT22;4343;53.648;10.098;2022-07-09T23:43:03;15.20;99.90
8611;DHT22;4343;53.648;10.098;2022-07-09T23:46:14;15.10;99.90
8611;DHT22;4343;53.648;10.098;2022-07-09T23:53:27;15.10;99.90
8611;DHT22;4343;53.648;10.098;2022-07-09T23:56:40;15.10;99.90
8611;DHT22;4343;53.648;10.098;2022-07-09T23:59:44;15.10;99.90
